Flight Track Log - Related Links

Times and Time Zones

All times are in EDT time to prevent confusion due to time zone crossing. See the GJS3707 flight status page for this flight to view local times or setup timezone preferences in your user account.

Time Position Orientation Groundspeed Altitude Reporting Facility
EDT Latitude Longitude Course Direction KTS MPH feet Rate Location/Type
Mon 11:44:55 AM 42.0000 -87.9667 284° West 164 189 2,900  Level Chicago TRACON
Mon 11:45:55 AM 42.0167 -88.0333 289° West 212 244 4,900 2,000 Climbing Chicago TRACON
Mon 11:46:55 AM 42.0333 -88.1333 283° West 256 295 6,900 2,286 Climbing Chicago TRACON
Mon 11:48:01 AM 42.0500 -88.2333 283° West 257 296 9,700 2,193 Climbing Chicago TRACON
Mon 11:49:20 AM 42.0725 -88.3386 286° West 262 302 12,200 2,043 Climbing Chicago Center
Mon 11:50:00 AM 42.1350 -88.7535 284° West  Level Estimated
Mon 11:50:22 AM 42.0925 -88.4525 283° West 264 304 14,500  Level Chicago Center
Mon 11:51:24 AM 42.0933 -88.5553 271° West 274 315 16,200 1,597 Climbing Chicago Center
Mon 11:52:26 AM 42.1053 -88.6628 279° West 291 335 17,800 1,548 Climbing Chicago Center
Mon 11:53:28 AM 42.1275 -88.7706 286° West 301 346 19,400 1,258 Climbing Chicago Center
Mon 11:54:30 AM 42.1514 -88.8883 285° West 313 360 20,400 1,113 Climbing Chicago Center
Mon 11:55:32 AM 42.1742 -89.0122 284° West 335 386 21,700 1,258 Climbing Chicago Center
Mon 11:56:34 AM 42.2019 -89.1583 284° West 343 395 23,000 1,016 Climbing Chicago Center
Mon 11:57:36 AM 42.2261 -89.2922 284° West 362 417 23,800 823 Climbing Chicago Center
Mon 11:58:38 AM 42.2244 -89.4344 269° West 378 435 24,700 871 Climbing Chicago Center
Mon 11:59:40 AM 42.2150 -89.5825 265° West 393 452 25,600 823 Climbing Chicago Center
Mon 12:00:42 PM 42.2172 -89.7339 271° West 400 460 26,400 774 Climbing Chicago Center
Mon 12:01:44 PM 42.2197 -89.8833 271° West 399 459 27,200 677 Climbing Chicago Center
Mon 12:02:46 PM 42.2233 -90.0339 272° West 409 471 27,800 624 Climbing Chicago Center
Mon 12:03:49 PM 42.2275 -90.2194 272° West 415 478 28,500 576 Climbing Chicago Center
Mon 12:04:51 PM 42.2322 -90.3772 272° West 422 486 29,000 484 Climbing Chicago Center
Mon 12:05:53 PM 42.2358 -90.5386 272° West 432 497 29,500 484 Climbing Chicago Center
Mon 12:06:55 PM 42.2408 -90.6992 272° West 430 495 30,000 484 Climbing Chicago Center
Mon 12:07:57 PM 42.2458 -90.8614 272° West 435 501 30,500 629 Climbing Chicago Center
Mon 12:08:59 PM 42.2531 -91.0583 273° West 440 506 31,300 726 Climbing Chicago Center
Mon 12:10:01 PM 42.2606 -91.2200 274° West 436 502 32,000 677 Climbing Chicago Center
Mon 12:11:03 PM 42.2672 -91.3808 273° West 431 496 32,700 677 Climbing Chicago Center
Mon 12:12:05 PM 42.2733 -91.5392 273° West 426 490 33,400 677 Climbing Chicago Center
Mon 12:13:07 PM 42.2797 -91.6981 273° West 424 488 34,100 726 Climbing Chicago Center
Mon 12:14:09 PM 42.2881 -91.8844 274° West 416 479 34,900 720 Climbing Chicago Center
Mon 12:15:12 PM 42.2972 -92.0375 275° West 411 473 35,600 528 Climbing Chicago Center
Mon 12:16:14 PM 42.3269 -92.1828 286° West 406 467 36,000 194 Climbing Chicago Center
Mon 12:17:16 PM 42.3717 -92.3250 293° West 411 473 36,000  Level Chicago Center
Mon 12:18:18 PM 42.4167 -92.4694 293° West 418 481 36,000  Level Chicago Center
Mon 12:19:26 PM 42.4711 -92.6433 293° West 417 480 36,000  Level Minneapolis Center
Mon 12:20:22 PM 42.5139 -92.7853 292° West 414 476 36,000  Level Chicago Center
Mon 12:21:24 PM 42.5589 -92.9292 293° West 417 480 36,000  Level Chicago Center
Mon 12:22:27 PM 42.6025 -93.0728 292° West 416 479 36,000  Level Chicago Center
Mon 12:23:34 PM 42.6547 -93.2472 292° West 416 479 36,000  Level Minneapolis Center
Mon 12:24:36 PM 42.6983 -93.3914 292° West 417 480 36,000  Level Minneapolis Center
Mon 12:25:38 PM 42.7417 -93.5364 292° West 417 480 36,000  Level Minneapolis Center
Mon 12:26:40 PM 42.7881 -93.6808 294° West 420 483 36,000  Level Minneapolis Center
Mon 12:27:42 PM 42.8367 -93.8556 291° West 417 480 36,000  Level Minneapolis Center
Mon 12:28:44 PM 42.8794 -94.0025 292° West 419 482 36,000  Level Minneapolis Center
Mon 12:29:46 PM 42.9233 -94.1486 292° West 420 483 36,000  Level Minneapolis Center
Mon 12:30:48 PM 42.9575 -94.2664 292° West 421 484 36,000  Level Minneapolis Center
Mon 12:31:50 PM 43.0089 -94.4475 291° West 420 483 36,000  Level Minneapolis Center
Mon 12:32:52 PM 43.0489 -94.6003 290° West 426 490 36,000  Level Minneapolis Center
Mon 12:33:54 PM 43.1044 -94.7769 293° West 423 487 36,000  Level Minneapolis Center
Mon 12:34:56 PM 43.1469 -94.9286 291° West 425 489 36,000  Level Minneapolis Center
Mon 12:35:58 PM 43.1900 -95.0828 291° West 431 496 36,000  Level Minneapolis Center
Mon 12:37:01 PM 43.2328 -95.2358 291° West 431 496 36,000 288 Level Minneapolis Center
Mon 12:38:03 PM 43.2758 -95.3867 291° West 429 494 36,600 581 Climbing Minneapolis Center
Mon 12:39:05 PM 43.3169 -95.5383 290° West 426 490 37,200 629 Climbing Minneapolis Center
Mon 12:40:07 PM 43.3658 -95.7161 291° West 418 481 37,900 387 Climbing Minneapolis Center
Mon 12:41:09 PM 43.4058 -95.8614 291° West 411 473 38,000 48 Climbing Minneapolis Center
Mon 12:42:11 PM 43.4458 -96.0139 290° West 418 481 38,000  Level Minneapolis Center
Mon 12:43:13 PM 43.4850 -96.1636 290° West 417 480 38,000  Level Minneapolis Center
Mon 12:44:15 PM 43.5261 -96.3131 291° West 416 479 38,000  Level Minneapolis Center
Mon 12:45:17 PM 43.5661 -96.4644 290° West 419 482 38,000  Level Minneapolis Center
Mon 12:46:19 PM 43.6056 -96.6158 290° West 419 482 38,000  Level Minneapolis Center
Mon 12:47:21 PM 43.6531 -96.8011 290° West 425 489 38,000  Level Minneapolis Center
Mon 12:48:23 PM 43.6644 -96.9625 276° West 423 487 38,000  Level Minneapolis Center
Mon 12:49:25 PM 43.6769 -97.1236 276° West 422 486 38,000  Level Minneapolis Center
Mon 12:50:27 PM 43.6886 -97.2856 276° West 424 488 38,000  Level Minneapolis Center
Mon 12:51:29 PM 43.7011 -97.4469 276° West 423 487 38,000  Level Minneapolis Center
Mon 12:52:31 PM 43.7133 -97.6083 276° West 423 487 38,000  Level Minneapolis Center
Mon 12:53:34 PM 43.7267 -97.8019 276° West 422 486 38,000  Level Minneapolis Center
Mon 12:54:36 PM 43.7383 -97.9625 276° West 421 484 38,000  Level Minneapolis Center
Mon 12:55:38 PM 43.7492 -98.1211 275° West 418 481 38,000  Level Minneapolis Center
Mon 12:56:40 PM 43.7600 -98.2814 275° West 418 481 38,000  Level Minneapolis Center
Mon 12:57:42 PM 43.7708 -98.4414 275° West 419 482 38,000  Level Minneapolis Center
Mon 12:58:43 PM 43.7781 -98.5700 274° West 421 484 38,000  Level Minneapolis Center
Mon 12:59:46 PM 43.7906 -98.7658 275° West 421 484 38,000  Level Minneapolis Center
Mon 01:00:48 PM 43.8036 -98.9603 275° West 423 487 38,000  Level Minneapolis Center
Mon 01:01:50 PM 43.8131 -99.1244 275° West 427 491 38,000  Level Minneapolis Center
Mon 01:02:52 PM 43.8219 -99.2861 274° West 423 487 38,000  Level Minneapolis Center
Mon 01:03:54 PM 43.8311 -99.4506 274° West 427 491 38,000  Level Minneapolis Center
Mon 01:04:56 PM 43.8400 -99.6139 274° West 426 490 38,000  Level Minneapolis Center
Mon 01:06:10 PM 43.8481 -99.7769 274° West 425 489 38,000  Level Minneapolis Center
Mon 01:07:13 PM 43.8608 -100.0058 275° West 425 489 38,000  Level Minneapolis Center
Mon 01:08:15 PM 43.8683 -100.1661 274° West 422 486 38,000  Level Minneapolis Center
Mon 01:09:17 PM 43.8769 -100.3289 274° West 421 484 38,000  Level Minneapolis Center
Mon 01:10:19 PM 43.8850 -100.4889 274° West 418 481 38,000  Level Minneapolis Center
Mon 01:11:21 PM 43.8908 -100.6483 273° West 415 478 38,000  Level Minneapolis Center
Mon 01:12:23 PM 43.8986 -100.8078 274° West 415 478 38,000  Level Minneapolis Center
Mon 01:13:25 PM 43.9072 -100.9706 274° West 416 479 38,000  Level Minneapolis Center
Mon 01:14:27 PM 43.9147 -101.1611 273° West 414 476 38,000  Level Minneapolis Center
Mon 01:15:29 PM 43.9206 -101.3192 273° West 411 473 38,000  Level Minneapolis Center
Mon 01:16:31 PM 43.9267 -101.4747 273° West 408 470 38,000  Level Denver Center
Mon 01:17:33 PM 43.9328 -101.6331 273° West 410 472 38,000  Level Denver Center
Mon 01:18:35 PM 43.9378 -101.7897 273° West 409 471 38,000  Level Denver Center
Mon 01:19:37 PM 43.9394 -101.9458 271° West 406 467 38,000  Level Denver Center
Mon 01:20:39 PM 43.9469 -102.1056 274° West 410 472 38,000  Level Denver Center
Mon 01:21:41 PM 43.9550 -102.3000 273° West 418 481 38,000  Level Denver Center
Mon 01:22:43 PM 43.9606 -102.4603 273° West 417 480 38,000  Level Denver Center
Mon 01:23:45 PM 43.9664 -102.6208 273° West 417 480 38,000  Level Denver Center
Mon 01:24:47 PM 43.9703 -102.7806 272° West 416 479 38,000  Level Denver Center
Mon 01:25:49 PM 43.9772 -102.9614 273° West 417 480 38,000  Level Denver Center
Mon 01:26:52 PM 43.9806 -103.1153 272° West 417 480 38,000  Level Denver Center
Mon 01:27:54 PM 43.9836 -103.2925 271° West 415 478 38,000  Level Denver Center
Mon 01:28:56 PM 43.9856 -103.4433 271° West 411 473 38,000  Level Denver Center
Mon 01:29:58 PM 43.9881 -103.6200 271° West 412 474 38,000  Level Denver Center
Mon 01:31:00 PM 43.9897 -103.7725 271° West 414 476 38,000  Level Denver Center
Mon 01:32:02 PM 43.9936 -103.9497 272° West 411 473 38,000  Level Denver Center
Mon 01:33:04 PM 43.9950 -104.1025 271° West 412 474 38,000  Level Denver Center
Mon 01:34:06 PM 43.9975 -104.2817 271° West 415 478 38,000  Level Denver Center
Mon 01:35:08 PM 43.9992 -104.4328 271° West 411 473 38,000  Level Denver Center
Mon 01:36:10 PM 44.0011 -104.5856 271° West 414 476 38,000  Level Denver Center
Mon 01:37:12 PM 44.0017 -104.7625 270° West 412 474 38,000  Level Denver Center
Mon 01:38:14 PM 44.0028 -104.9136 271° West 411 473 38,000  Level Denver Center
Mon 01:39:16 PM 44.0042 -105.0906 271° West 412 474 38,000  Level Denver Center
Mon 01:40:19 PM 44.0044 -105.2403 270° West 409 471 38,000  Level Denver Center
Mon 01:41:21 PM 44.0044 -105.4172 270° West 410 472 38,000  Level Denver Center
Mon 01:42:23 PM 44.0044 -105.5706 270° West 413 475 38,000  Level Denver Center
Mon 01:43:25 PM 44.0047 -105.7458 270° West 411 473 38,000  Level Denver Center
Mon 01:44:27 PM 44.0042 -105.8958 270° West 408 470 38,000  Level Denver Center
Mon 01:45:29 PM 44.0039 -106.0717 270° West 409 471 38,000  Level Denver Center
Mon 01:46:13 PM 44.0039 -106.1733 270° West 409 471 38,000  Level Salt Lake Center
Mon 01:47:15 PM 44.0003 -106.3328 268° West 412 474 38,000  Level Salt Lake Center
Mon 01:48:17 PM 44.0011 -106.4892 270° West 409 471 38,000  Level Salt Lake Center
Mon 01:49:19 PM 44.0092 -106.6789 273° West 410 472 38,000  Level Salt Lake Center
Mon 01:50:21 PM 44.0158 -106.8358 273° West 409 471 38,000  Level Salt Lake Center
Mon 01:51:23 PM 44.0203 -106.9944 272° West 411 473 38,000  Level Salt Lake Center
Mon 01:52:25 PM 44.0258 -107.1517 273° West 410 472 38,000  Level Salt Lake Center
Mon 01:53:27 PM 44.0319 -107.3100 273° West 410 472 38,000  Level Salt Lake Center
Mon 01:54:29 PM 44.0364 -107.4675 272° West 409 471 38,000  Level Salt Lake Center
Mon 01:55:31 PM 44.0417 -107.6581 272° West 411 473 38,000  Level Salt Lake Center
Mon 01:56:33 PM 44.0469 -107.8147 273° West 407 468 38,000  Level Salt Lake Center
Mon 01:57:35 PM 44.0517 -107.9708 272° West 405 466 38,000  Level Salt Lake Center
Mon 01:58:37 PM 44.0556 -108.1247 272° West 399 459 38,000  Level Salt Lake Center
Mon 01:59:39 PM 44.0594 -108.2808 272° West 403 464 38,000  Level Salt Lake Center
Mon 02:00:41 PM 44.0636 -108.4381 272° West 405 466 38,000  Level Salt Lake Center
Mon 02:01:43 PM 44.0669 -108.5939 272° West 404 465 38,000  Level Salt Lake Center
Mon 02:02:45 PM 44.0706 -108.7806 272° West 403 464 38,000  Level Salt Lake Center
Mon 02:03:47 PM 44.0744 -108.9361 272° West 402 463 38,000  Level Salt Lake Center
Mon 02:04:49 PM 44.0769 -109.0925 271° West 405 466 38,000  Level Salt Lake Center
Mon 02:05:51 PM 44.0797 -109.2467 271° West 402 463 38,000  Level Salt Lake Center
Mon 02:06:53 PM 44.0817 -109.4017 271° West 402 463 38,000  Level Salt Lake Center
Mon 02:07:55 PM 44.0828 -109.5789 271° West 402 463 38,000  Level Salt Lake Center
Mon 02:08:57 PM 44.0864 -109.7283 272° West 403 464 38,000  Level Salt Lake Center
Mon 02:09:59 PM 44.0872 -109.9033 270° West 404 465 38,000  Level Salt Lake Center
Mon 02:11:01 PM 44.0897 -110.0514 271° West 402 463 38,000  Level Salt Lake Center
Mon 02:12:03 PM 44.0925 -110.2225 271° West 398 458 38,000  Level Salt Lake Center
Mon 02:13:05 PM 44.0936 -110.3703 271° West 398 458 38,000  Level Salt Lake Center
Mon 02:14:07 PM 44.0944 -110.5203 270° West 403 464 38,000  Level Salt Lake Center
Mon 02:15:09 PM 44.0931 -110.6936 269° West 400 460 38,000  Level Salt Lake Center
Mon 02:16:12 PM 44.0936 -110.8442 270° West 406 467 38,000  Level Salt Lake Center
Mon 02:17:14 PM 44.0947 -111.0189 271° West 404 465 38,000  Level Salt Lake Center
Mon 02:18:16 PM 44.0942 -111.1672 270° West 402 463 38,000  Level Salt Lake Center
Mon 02:19:18 PM 44.0933 -111.3408 270° West 399 459 38,000  Level Salt Lake Center
Mon 02:20:20 PM 44.0936 -111.4908 270° West 401 461 38,000  Level Salt Lake Center
Mon 02:21:22 PM 44.0925 -111.6644 270° West 401 461 38,000  Level Salt Lake Center
Mon 02:22:24 PM 44.0917 -111.8139 270° West 402 463 38,000  Level Salt Lake Center
Mon 02:23:26 PM 44.0908 -111.9642 270° West 404 465 38,000  Level Salt Lake Center
Mon 02:24:28 PM 44.0889 -112.1383 269° West 403 464 38,000  Level Salt Lake Center
Mon 02:25:30 PM 44.0806 -112.2867 266° West 402 463 38,000  Level Salt Lake Center
Mon 02:26:32 PM 44.0608 -112.4567 261° West 400 460 38,000  Level Salt Lake Center
Mon 02:27:34 PM 44.0439 -112.5983 261° West 390 449 38,000  Level Salt Lake Center
Mon 02:28:36 PM 44.0247 -112.7581 261° West 376 433 38,000  Level Salt Lake Center
Mon 02:29:38 PM 44.0081 -112.8942 260° West 374 430 38,000  Level Salt Lake Center
Mon 02:30:40 PM 43.9897 -113.0544 261° West 376 433 38,000  Level Salt Lake Center
Mon 02:31:42 PM 43.9725 -113.1933 260° West 380 437 38,000  Level Salt Lake Center
Mon 02:32:44 PM 43.9542 -113.3364 260° West 383 441 38,000  Level Salt Lake Center
Mon 02:33:46 PM 43.9372 -113.4950 262° West 381 438 38,000  Level Salt Lake Center
Mon 02:34:48 PM 43.9186 -113.6386 260° West 389 448 38,000  Level Salt Lake Center
Mon 02:35:50 PM 43.8978 -113.8036 260° West 389 448 38,000 -194 Level Salt Lake Center
Mon 02:36:52 PM 43.8789 -113.9464 260° West 389 448 37,600 -774 Descending Salt Lake Center
Mon 02:37:54 PM 43.8578 -114.1092 260° West 382 440 36,400 -1,016 Descending Salt Lake Center
Mon 02:38:56 PM 43.8400 -114.2486 260° West 382 440 35,500 -1,645 Descending Salt Lake Center
Mon 02:39:58 PM 43.8183 -114.4150 260° West 393 452 33,000 -2,661 Descending Salt Lake Center
Mon 02:41:00 PM 43.7997 -114.5592 260° West 396 456 30,000 -3,194 Descending Salt Lake Center
Mon 02:42:02 PM 43.7753 -114.7331 259° West 413 475 26,400 -2,928 Descending Salt Lake Center
Mon 02:43:05 PM 43.7556 -114.8806 260° West 408 470 23,900 -1,536 Descending Salt Lake Center
Mon 02:44:07 PM 43.7367 -115.0172 259° West 377 434 23,200 -435 Descending Salt Lake Center
Mon 02:45:09 PM 43.7150 -115.1761 259° West 377 434 23,000 -387 Descending Salt Lake Center
Mon 02:46:11 PM 43.6975 -115.3056 259° West 357 411 22,400 -2,032 Descending Salt Lake Center
Mon 02:47:13 PM 43.6653 -115.4331 251° West 322 371 18,800 -3,220 Descending Salt Lake Center
Mon 02:48:14 PM 43.6247 -115.5461 244° Southwest 315 362 15,800 -2,732 Descending Salt Lake Center
Mon 02:49:16 PM 43.5864 -115.6533 244° Southwest 301 346 13,200 -2,323 Descending Salt Lake Center
Mon 02:50:18 PM 43.5389 -115.7500 236° Southwest 295 339 11,000 -1,887 Descending Salt Lake Center
Mon 02:51:20 PM 43.4947 -115.8408 236° Southwest 274 315 9,300 -1,500 Descending Salt Lake Center
Mon 02:52:22 PM 43.4858 -115.9442 263° West 264 304 7,900 -1,306 Descending Salt Lake Center
Mon 02:53:24 PM 43.4967 -116.0225 281° West 216 249 6,600 -1,597 Descending Salt Lake Center
Mon 02:54:26 PM 43.5203 -116.0933 295° West 198 228 4,600 -1,935 Descending Salt Lake Center

Login

Don't have an account? Register now (free) for customized features, flight alerts, and more!